Wilson Lista — 8PRW — position and weather

sailwx.info

Track history (hours):
 
Tides and Currents Weather Stations Pressure Air Temp Water Temp Dewpoint Dewpoint Depression Visibility Wind Speed Wind Dir Waves Ship Positions

Wilson Lista

Last reported at 2016-Jul-27 22:30 UTC. Time now 2016-Jul-28 12:23 UTC.
Position N 51°29' W 003°04'.

Length 88 m; draft 3.8 m.

Type: Cargo ship. MMSI: 314188000.

Date/timePositionNaut miles runAvg speedWind from/ knotsBaromVisibWave heightAir tempDewpointWater temp
2016-Jul-27 22:30N 51°29' W 003°04'5 5.0
2016-Jul-27 21:30N 51°33' W 002°59'7 0.3
2016-Jul-26 21:15N 51°27' W 003°04'58 4.8
2016-Jul-26 09:20N 51°07' W 004°30'1012.3
2016-Jul-26 08:33N 51°00' W 004°42'1111.5
2016-Jul-26 07:33N 50°53' W 004°55'1111.0
2016-Jul-26 06:33N 50°45' W 005°08'1110.6
2016-Jul-26 05:33N 50°38' W 005°20'1010.2
2016-Jul-26 04:34N 50°31' W 005°32'10 9.7
2016-Jul-26 03:33N 50°25' W 005°44'38 5.5
2016-Jul-25 20:33N 49°59' W 004°60'20 9.8
2016-Jul-25 18:32N 50°09' W 004°34'1110.3
2016-Jul-25 17:29N 50°15' W 004°20'9 9.3
2016-Jul-25 16:32N 50°21' W 004°09'  
2016-Jul-22 15:24N 50°21' W 004°09'7 6.9
2016-Jul-22 14:23N 50°14' W 004°07'14 7.3
2016-Jul-22 12:26N 50°09' W 003°46'8 9.2
2016-Jul-22 11:33N 50°09' W 003°34'9 9.5
2016-Jul-22 10:33N 50°10' W 003°19'9 8.6
2016-Jul-22 09:33N 50°11' W 003°05'9 8.2
2016-Jul-22 08:29N 50°12' W 002°52'9 8.4
2016-Jul-22 07:26N 50°14' W 002°38'8610.8
2016-Jul-21 23:28N 50°30' W 000°25'7 7.5
2016-Jul-21 22:33N 50°31' W 000°15'7 6.9
2016-Jul-21 21:33N 50°32' W 000°04'7 7.2
2016-Jul-21 20:33N 50°34' E 000°07'8 8.3
2016-Jul-21 19:33N 50°36' E 000°20'40 9.9
2016-Jul-21 15:33N 50°57' E 001°13'8 8.1
2016-Jul-21 14:33N 51°02' E 001°23'7 7.0
2016-Jul-21 13:33N 51°07' E 001°32'7 6.7
2016-Jul-21 12:33N 51°11' E 001°39'8 7.9
2016-Jul-21 11:33N 51°17' E 001°48'1010.3
2016-Jul-21 10:33N 51°26' E 001°55'1211.6
2016-Jul-21 09:30N 51°36' E 002°08'1411.6
2016-Jul-21 08:17N 51°46' E 002°23'141 8.8
2016-Jul-20 16:19N 53°32' E 004°56'7 9.5
2016-Jul-20 15:32N 53°34' E 005°08'1110.8
2016-Jul-20 14:33N 53°38' E 005°25'1111.2
2016-Jul-20 13:33N 53°42' E 005°42'1111.1
2016-Jul-20 12:33N 53°45' E 006°00'1010.4
2016-Jul-20 11:33N 53°49' E 006°17'10 9.4
2016-Jul-20 10:33N 53°51' E 006°32'9 8.8
2016-Jul-20 09:34N 53°53' E 006°47'8 8.3
2016-Jul-20 08:33N 53°55' E 007°00'8 8.3
2016-Jul-20 07:32N 53°57' E 007°14'8 8.6
2016-Jul-20 06:34N 53°60' E 007°28'10 9.5
2016-Jul-20 05:33N 54°02' E 007°44'1010.4
2016-Jul-20 04:33N 54°01' E 008°01'1211.4
2016-Jul-20 03:33N 53°60' E 008°21'1511.4
2016-Jul-20 02:14N 53°53' E 008°43'6 9.0
2016-Jul-20 01:33N 53°51' E 008°53'8 8.3
2016-Jul-20 00:33N 53°53' E 009°07'2 1.7
2016-Jul-19 23:33N 53°54' E 009°09'7 6.8
2016-Jul-19 22:33N 53°59' E 009°17'31 7.3
2016-Jul-19 18:19N 54°21' E 009°54'5 5.8
2016-Jul-19 17:25N 54°22' E 010°02'4 4.1
2016-Jul-19 16:33N 54°22' E 010°09'6 6.1
2016-Jul-19 15:33N 54°27' E 010°14'14 9.5
2016-Jul-19 14:05N 54°34' E 010°35'5 9.2
2016-Jul-19 13:33N 54°35' E 010°43'9 9.3
2016-Jul-19 12:33N 54°36' E 010°59'10 9.6
2016-Jul-19 11:34N 54°35' E 011°15'1010.4
2016-Jul-19 10:33N 54°30' E 011°32'10 9.7
2016-Jul-19 09:33N 54°26' E 011°47'10 9.8
2016-Jul-19 08:33N 54°27' E 012°03'9 8.7
2016-Jul-19 07:30N 54°34' E 012°13'11 9.5
2016-Jul-19 06:24N 54°41' E 012°27'52 9.8
2016-Jul-19 01:07N 54°54' E 013°53'6 9.9
2016-Jul-19 00:33N 54°55' E 014°03'10 9.7
2016-Jul-18 23:33N 54°56' E 014°19'10 9.6
2016-Jul-18 22:33N 54°56' E 014°36'9 9.5
2016-Jul-18 21:33N 54°57' E 014°53'10 9.6
2016-Jul-18 20:33N 54°58' E 015°09'10 9.6
2016-Jul-18 19:34N 55°00' E 015°25'  
Track history (hours):
 
Tides and Currents Weather Stations Pressure Air Temp Water Temp Dewpoint Dewpoint Depression Visibility Wind Speed Wind Dir Waves Ship Positions

Wilson Lista

Last reported at 2016-Jul-27 22:30 UTC. Time now 2016-Jul-28 12:23 UTC.
Position N 51°29' W 003°04'.

Length 88 m; draft 3.8 m.

Type: Cargo ship. MMSI: 314188000.

Date/timePositionNaut miles runAvg speedWind from/ knotsBaromVisibWave heightAir tempDewpointWater temp
2016-Jul-27 22:30N 51°29' W 003°04'5 5.0
2016-Jul-27 21:30N 51°33' W 002°59'7 0.3
2016-Jul-26 21:15N 51°27' W 003°04'58 4.8
2016-Jul-26 09:20N 51°07' W 004°30'1012.3
2016-Jul-26 08:33N 51°00' W 004°42'1111.5
2016-Jul-26 07:33N 50°53' W 004°55'1111.0
2016-Jul-26 06:33N 50°45' W 005°08'1110.6
2016-Jul-26 05:33N 50°38' W 005°20'1010.2
2016-Jul-26 04:34N 50°31' W 005°32'10 9.7
2016-Jul-26 03:33N 50°25' W 005°44'38 5.5
2016-Jul-25 20:33N 49°59' W 004°60'20 9.8
2016-Jul-25 18:32N 50°09' W 004°34'1110.3
2016-Jul-25 17:29N 50°15' W 004°20'9 9.3
2016-Jul-25 16:32N 50°21' W 004°09'  
2016-Jul-22 15:24N 50°21' W 004°09'7 6.9
2016-Jul-22 14:23N 50°14' W 004°07'14 7.3
2016-Jul-22 12:26N 50°09' W 003°46'8 9.2
2016-Jul-22 11:33N 50°09' W 003°34'9 9.5
2016-Jul-22 10:33N 50°10' W 003°19'9 8.6
2016-Jul-22 09:33N 50°11' W 003°05'9 8.2
2016-Jul-22 08:29N 50°12' W 002°52'9 8.4
2016-Jul-22 07:26N 50°14' W 002°38'8610.8
2016-Jul-21 23:28N 50°30' W 000°25'7 7.5
2016-Jul-21 22:33N 50°31' W 000°15'7 6.9
2016-Jul-21 21:33N 50°32' W 000°04'7 7.2
2016-Jul-21 20:33N 50°34' E 000°07'8 8.3
2016-Jul-21 19:33N 50°36' E 000°20'40 9.9
2016-Jul-21 15:33N 50°57' E 001°13'8 8.1
2016-Jul-21 14:33N 51°02' E 001°23'7 7.0
2016-Jul-21 13:33N 51°07' E 001°32'7 6.7
2016-Jul-21 12:33N 51°11' E 001°39'8 7.9
2016-Jul-21 11:33N 51°17' E 001°48'1010.3
2016-Jul-21 10:33N 51°26' E 001°55'1211.6
2016-Jul-21 09:30N 51°36' E 002°08'1411.6
2016-Jul-21 08:17N 51°46' E 002°23'141 8.8
2016-Jul-20 16:19N 53°32' E 004°56'7 9.5
2016-Jul-20 15:32N 53°34' E 005°08'1110.8
2016-Jul-20 14:33N 53°38' E 005°25'1111.2
2016-Jul-20 13:33N 53°42' E 005°42'1111.1
2016-Jul-20 12:33N 53°45' E 006°00'1010.4
2016-Jul-20 11:33N 53°49' E 006°17'10 9.4
2016-Jul-20 10:33N 53°51' E 006°32'9 8.8
2016-Jul-20 09:34N 53°53' E 006°47'8 8.3
2016-Jul-20 08:33N 53°55' E 007°00'8 8.3
2016-Jul-20 07:32N 53°57' E 007°14'8 8.6
2016-Jul-20 06:34N 53°60' E 007°28'10 9.5
2016-Jul-20 05:33N 54°02' E 007°44'1010.4
2016-Jul-20 04:33N 54°01' E 008°01'1211.4
2016-Jul-20 03:33N 53°60' E 008°21'1511.4
2016-Jul-20 02:14N 53°53' E 008°43'6 9.0
2016-Jul-20 01:33N 53°51' E 008°53'8 8.3
2016-Jul-20 00:33N 53°53' E 009°07'2 1.7
2016-Jul-19 23:33N 53°54' E 009°09'7 6.8
2016-Jul-19 22:33N 53°59' E 009°17'31 7.3
2016-Jul-19 18:19N 54°21' E 009°54'5 5.8
2016-Jul-19 17:25N 54°22' E 010°02'4 4.1
2016-Jul-19 16:33N 54°22' E 010°09'6 6.1
2016-Jul-19 15:33N 54°27' E 010°14'14 9.5
2016-Jul-19 14:05N 54°34' E 010°35'5 9.2
2016-Jul-19 13:33N 54°35' E 010°43'9 9.3
2016-Jul-19 12:33N 54°36' E 010°59'10 9.6
2016-Jul-19 11:34N 54°35' E 011°15'1010.4
2016-Jul-19 10:33N 54°30' E 011°32'10 9.7
2016-Jul-19 09:33N 54°26' E 011°47'10 9.8
2016-Jul-19 08:33N 54°27' E 012°03'9 8.7
2016-Jul-19 07:30N 54°34' E 012°13'11 9.5
2016-Jul-19 06:24N 54°41' E 012°27'52 9.8
2016-Jul-19 01:07N 54°54' E 013°53'6 9.9
2016-Jul-19 00:33N 54°55' E 014°03'10 9.7
2016-Jul-18 23:33N 54°56' E 014°19'10 9.6
2016-Jul-18 22:33N 54°56' E 014°36'9 9.5
2016-Jul-18 21:33N 54°57' E 014°53'10 9.6
2016-Jul-18 20:33N 54°58' E 015°09'10 9.6
2016-Jul-18 19:34N 55°00' E 015°25'  

Dump ship's entire track history